sensor_id;sensor_type;location;lat;lon;timestamp;P1;durP1;ratioP1;P2;durP2;ratioP2
10063;SDS011;5071;52.360;13.134;2022-09-01T00:04:21;0.50;;;0.43;;
10063;SDS011;5071;52.360;13.134;2022-09-01T00:09:25;2.00;;;0.60;;
10063;SDS011;5071;52.360;13.134;2022-09-01T00:14:28;0.37;;;0.37;;
10063;SDS011;5071;52.360;13.134;2022-09-01T00:19:34;0.67;;;0.50;;
10063;SDS011;5071;52.360;13.134;2022-09-01T00:24:37;0.60;;;0.53;;
10063;SDS011;5071;52.360;13.134;2022-09-01T00:29:39;1.03;;;0.50;;
10063;SDS011;5071;52.360;13.134;2022-09-01T00:34:45;2.03;;;0.70;;
10063;SDS011;5071;52.360;13.134;2022-09-01T00:39:48;0.40;;;0.40;;
10063;SDS011;5071;52.360;13.134;2022-09-01T00:44:50;0.30;;;0.30;;
10063;SDS011;5071;52.360;13.134;2022-09-01T00:49:53;0.70;;;0.43;;
10063;SDS011;5071;52.360;13.134;2022-09-01T00:54:56;0.67;;;0.60;;
10063;SDS011;5071;52.360;13.134;2022-09-01T01:00:04;0.80;;;0.50;;
10063;SDS011;5071;52.360;13.134;2022-09-01T01:05:09;0.80;;;0.57;;
10063;SDS011;5071;52.360;13.134;2022-09-01T01:10:18;1.00;;;0.53;;
10063;SDS011;5071;52.360;13.134;2022-09-01T01:15:22;2.90;;;0.50;;
10063;SDS011;5071;52.360;13.134;2022-09-01T01:20:26;0.63;;;0.47;;
10063;SDS011;5071;52.360;13.134;2022-09-01T01:25:33;4.13;;;0.60;;
10063;SDS011;5071;52.360;13.134;2022-09-01T01:30:38;0.60;;;0.43;;
10063;SDS011;5071;52.360;13.134;2022-09-01T01:35:42;0.50;;;0.50;;
10063;SDS011;5071;52.360;13.134;2022-09-01T01:40:45;0.30;;;0.30;;
10063;SDS011;5071;52.360;13.134;2022-09-01T01:45:49;0.77;;;0.40;;
10063;SDS011;5071;52.360;13.134;2022-09-01T01:50:53;0.47;;;0.40;;
10063;SDS011;5071;52.360;13.134;2022-09-01T01:55:57;0.30;;;0.30;;
10063;SDS011;5071;52.360;13.134;2022-09-01T02:01:01;1.03;;;0.57;;
10063;SDS011;5071;52.360;13.134;2022-09-01T02:06:05;0.67;;;0.47;;
10063;SDS011;5071;52.360;13.134;2022-09-01T02:11:10;0.40;;;0.40;;
10063;SDS011;5071;52.360;13.134;2022-09-01T02:16:12;1.53;;;0.47;;
10063;SDS011;5071;52.360;13.134;2022-09-01T02:21:16;0.40;;;0.40;;
10063;SDS011;5071;52.360;13.134;2022-09-01T02:26:21;1.17;;;0.40;;
10063;SDS011;5071;52.360;13.134;2022-09-01T02:31:23;0.60;;;0.60;;
10063;SDS011;5071;52.360;13.134;2022-09-01T02:36:25;1.63;;;0.50;;
10063;SDS011;5071;52.360;13.134;2022-09-01T02:41:29;1.47;;;0.63;;
10063;SDS011;5071;52.360;13.134;2022-09-01T02:46:31;0.57;;;0.53;;
10063;SDS011;5071;52.360;13.134;2022-09-01T02:51:33;1.80;;;0.37;;
10063;SDS011;5071;52.360;13.134;2022-09-01T02:56:36;2.00;;;0.57;;
10063;SDS011;5071;52.360;13.134;2022-09-01T03:01:38;0.63;;;0.50;;
10063;SDS011;5071;52.360;13.134;2022-09-01T03:06:41;0.60;;;0.50;;
10063;SDS011;5071;52.360;13.134;2022-09-01T03:11:45;0.53;;;0.40;;
10063;SDS011;5071;52.360;13.134;2022-09-01T03:16:48;1.17;;;0.50;;
10063;SDS011;5071;52.360;13.134;2022-09-01T03:21:51;1.17;;;0.70;;
10063;SDS011;5071;52.360;13.134;2022-09-01T03:26:57;0.90;;;0.63;;
10063;SDS011;5071;52.360;13.134;2022-09-01T03:31:59;0.50;;;0.40;;
10063;SDS011;5071;52.360;13.134;2022-09-01T03:37:01;0.77;;;0.50;;
10063;SDS011;5071;52.360;13.134;2022-09-01T03:42:05;1.93;;;0.57;;
10063;SDS011;5071;52.360;13.134;2022-09-01T03:47:07;1.20;;;0.67;;
10063;SDS011;5071;52.360;13.134;2022-09-01T03:52:09;0.83;;;0.60;;
10063;SDS011;5071;52.360;13.134;2022-09-01T03:57:13;1.43;;;0.73;;
10063;SDS011;5071;52.360;13.134;2022-09-01T04:02:16;2.83;;;1.00;;
10063;SDS011;5071;52.360;13.134;2022-09-01T04:07:18;1.70;;;0.77;;
10063;SDS011;5071;52.360;13.134;2022-09-01T04:12:21;1.87;;;0.60;;
10063;SDS011;5071;52.360;13.134;2022-09-01T04:17:23;0.87;;;0.57;;
10063;SDS011;5071;52.360;13.134;2022-09-01T04:22:30;0.80;;;0.77;;
10063;SDS011;5071;52.360;13.134;2022-09-01T04:27:34;1.03;;;0.60;;
10063;SDS011;5071;52.360;13.134;2022-09-01T04:32:35;3.10;;;0.90;;
10063;SDS011;5071;52.360;13.134;2022-09-01T04:37:37;1.63;;;0.90;;
10063;SDS011;5071;52.360;13.134;2022-09-01T04:42:40;1.33;;;0.90;;
10063;SDS011;5071;52.360;13.134;2022-09-01T04:47:42;1.37;;;0.80;;
10063;SDS011;5071;52.360;13.134;2022-09-01T04:52:44;2.90;;;1.13;;
10063;SDS011;5071;52.360;13.134;2022-09-01T04:57:48;0.80;;;0.67;;
10063;SDS011;5071;52.360;13.134;2022-09-01T05:02:51;1.10;;;0.80;;
10063;SDS011;5071;52.360;13.134;2022-09-01T05:07:54;1.10;;;1.00;;
10063;SDS011;5071;52.360;13.134;2022-09-01T05:13:00;1.43;;;0.90;;
10063;SDS011;5071;52.360;13.134;2022-09-01T05:18:01;3.37;;;1.10;;
10063;SDS011;5071;52.360;13.134;2022-09-01T05:23:03;2.13;;;1.10;;
10063;SDS011;5071;52.360;13.134;2022-09-01T05:28:07;1.83;;;1.00;;
10063;SDS011;5071;52.360;13.134;2022-09-01T05:33:09;1.00;;;0.90;;
10063;SDS011;5071;52.360;13.134;2022-09-01T05:38:11;0.97;;;0.77;;
10063;SDS011;5071;52.360;13.134;2022-09-01T05:43:14;0.93;;;0.80;;
10063;SDS011;5071;52.360;13.134;2022-09-01T05:48:16;0.77;;;0.67;;
10063;SDS011;5071;52.360;13.134;2022-09-01T05:53:18;0.73;;;0.70;;
10063;SDS011;5071;52.360;13.134;2022-09-01T05:58:24;0.70;;;0.70;;
10063;SDS011;5071;52.360;13.134;2022-09-01T06:03:48;1.45;;;0.80;;
10063;SDS011;5071;52.360;13.134;2022-09-01T06:08:50;2.58;;;1.45;;
10063;SDS011;5071;52.360;13.134;2022-09-01T06:13:54;1.67;;;0.70;;
10063;SDS011;5071;52.360;13.134;2022-09-01T06:18:56;0.70;;;0.60;;
10063;SDS011;5071;52.360;13.134;2022-09-01T06:23:57;0.60;;;0.60;;
10063;SDS011;5071;52.360;13.134;2022-09-01T06:29:02;2.27;;;0.80;;
10063;SDS011;5071;52.360;13.134;2022-09-01T06:34:07;1.13;;;0.70;;
10063;SDS011;5071;52.360;13.134;2022-09-01T06:39:11;0.60;;;0.50;;
10063;SDS011;5071;52.360;13.134;2022-09-01T06:44:14;5.27;;;1.23;;
10063;SDS011;5071;52.360;13.134;2022-09-01T06:49:16;1.73;;;0.67;;
10063;SDS011;5071;52.360;13.134;2022-09-01T06:54:18;1.20;;;0.70;;
10063;SDS011;5071;52.360;13.134;2022-09-01T06:59:26;0.73;;;0.60;;
10063;SDS011;5071;52.360;13.134;2022-09-01T07:04:35;3.20;;;0.60;;
10063;SDS011;5071;52.360;13.134;2022-09-01T07:09:36;0.67;;;0.60;;
10063;SDS011;5071;52.360;13.134;2022-09-01T07:15:00;1.67;;;0.70;;
10063;SDS011;5071;52.360;13.134;2022-09-01T07:20:22;0.80;;;0.50;;
10063;SDS011;5071;52.360;13.134;2022-09-01T07:25:27;1.93;;;0.43;;
10063;SDS011;5071;52.360;13.134;2022-09-01T07:30:50;1.63;;;0.53;;
10063;SDS011;5071;52.360;13.134;2022-09-01T07:35:53;0.83;;;0.50;;
10063;SDS011;5071;52.360;13.134;2022-09-01T07:41:14;0.67;;;0.50;;
10063;SDS011;5071;52.360;13.134;2022-09-01T07:46:37;2.27;;;0.87;;
10063;SDS011;5071;52.360;13.134;2022-09-01T07:51:40;0.77;;;0.50;;
10063;SDS011;5071;52.360;13.134;2022-09-01T07:56:42;1.03;;;0.50;;
10063;SDS011;5071;52.360;13.134;2022-09-01T08:01:45;0.90;;;0.33;;
10063;SDS011;5071;52.360;13.134;2022-09-01T08:06:47;1.07;;;0.50;;
10063;SDS011;5071;52.360;13.134;2022-09-01T08:11:49;0.40;;;0.40;;
10063;SDS011;5071;52.360;13.134;2022-09-01T08:17:04;0.57;;;0.40;;
10063;SDS011;5071;52.360;13.134;2022-09-01T08:22:26;0.50;;;0.50;;
10063;SDS011;5071;52.360;13.134;2022-09-01T08:27:28;1.50;;;0.60;;
10063;SDS011;5071;52.360;13.134;2022-09-01T08:32:31;2.70;;;0.50;;
10063;SDS011;5071;52.360;13.134;2022-09-01T08:37:33;0.60;;;0.60;;
10063;SDS011;5071;52.360;13.134;2022-09-01T08:42:39;0.40;;;0.40;;
10063;SDS011;5071;52.360;13.134;2022-09-01T08:47:54;0.87;;;0.47;;
10063;SDS011;5071;52.360;13.134;2022-09-01T08:53:22;0.47;;;0.47;;
10063;SDS011;5071;52.360;13.134;2022-09-01T08:58:28;0.63;;;0.63;;
10063;SDS011;5071;52.360;13.134;2022-09-01T09:03:35;1.13;;;0.60;;
10063;SDS011;5071;52.360;13.134;2022-09-01T09:08:55;0.70;;;0.50;;
10063;SDS011;5071;52.360;13.134;2022-09-01T09:14:01;3.80;;;0.60;;
10063;SDS011;5071;52.360;13.134;2022-09-01T09:19:12;0.87;;;0.53;;
10063;SDS011;5071;52.360;13.134;2022-09-01T09:24:22;1.33;;;0.50;;
10063;SDS011;5071;52.360;13.134;2022-09-01T09:29:35;0.65;;;0.40;;
10063;SDS011;5071;52.360;13.134;2022-09-01T09:34:39;0.77;;;0.40;;
10063;SDS011;5071;52.360;13.134;2022-09-01T09:39:42;1.65;;;0.65;;
10063;SDS011;5071;52.360;13.134;2022-09-01T09:44:46;0.63;;;0.60;;
10063;SDS011;5071;52.360;13.134;2022-09-01T09:49:53;1.35;;;0.40;;
10063;SDS011;5071;52.360;13.134;2022-09-01T09:55:23;0.75;;;0.38;;
10063;SDS011;5071;52.360;13.134;2022-09-01T10:00:28;0.90;;;0.40;;
10063;SDS011;5071;52.360;13.134;2022-09-01T10:05:35;0.95;;;0.75;;
10063;SDS011;5071;52.360;13.134;2022-09-01T10:10:41;0.63;;;0.50;;
10063;SDS011;5071;52.360;13.134;2022-09-01T10:15:59;0.80;;;0.57;;
10063;SDS011;5071;52.360;13.134;2022-09-01T10:21:09;2.92;;;0.50;;
10063;SDS011;5071;52.360;13.134;2022-09-01T10:26:16;0.65;;;0.55;;
10063;SDS011;5071;52.360;13.134;2022-09-01T10:31:23;0.60;;;0.50;;
10063;SDS011;5071;52.360;13.134;2022-09-01T10:36:34;1.30;;;0.50;;
10063;SDS011;5071;52.360;13.134;2022-09-01T10:41:42;2.83;;;0.60;;
10063;SDS011;5071;52.360;13.134;2022-09-01T10:47:02;0.50;;;0.50;;
10063;SDS011;5071;52.360;13.134;2022-09-01T10:57:59;1.25;;;0.30;;
10063;SDS011;5071;52.360;13.134;2022-09-01T11:03:32;2.17;;;0.57;;
10063;SDS011;5071;52.360;13.134;2022-09-01T11:08:54;2.83;;;0.98;;
10063;SDS011;5071;52.360;13.134;2022-09-01T11:14:03;0.50;;;0.50;;
10063;SDS011;5071;52.360;13.134;2022-09-01T11:19:32;2.00;;;0.60;;
10063;SDS011;5071;52.360;13.134;2022-09-01T11:30:16;0.50;;;0.50;;
10063;SDS011;5071;52.360;13.134;2022-09-01T11:35:22;0.40;;;0.40;;
10063;SDS011;5071;52.360;13.134;2022-09-01T11:40:28;0.55;;;0.55;;
10063;SDS011;5071;52.360;13.134;2022-09-01T11:45:35;0.55;;;0.40;;
10063;SDS011;5071;52.360;13.134;2022-09-01T11:50:45;1.10;;;0.40;;
10063;SDS011;5071;52.360;13.134;2022-09-01T11:56:10;1.10;;;0.50;;
10063;SDS011;5071;52.360;13.134;2022-09-01T12:01:16;0.40;;;0.30;;
10063;SDS011;5071;52.360;13.134;2022-09-01T12:06:21;0.30;;;0.30;;
10063;SDS011;5071;52.360;13.134;2022-09-01T12:11:26;3.55;;;0.50;;
10063;SDS011;5071;52.360;13.134;2022-09-01T12:16:32;1.02;;;0.30;;
10063;SDS011;5071;52.360;13.134;2022-09-01T12:21:37;0.77;;;0.50;;
10063;SDS011;5071;52.360;13.134;2022-09-01T12:26:41;1.35;;;0.45;;
10063;SDS011;5071;52.360;13.134;2022-09-01T12:31:45;1.00;;;0.73;;
10063;SDS011;5071;52.360;13.134;2022-09-01T12:37:00;0.30;;;0.30;;
10063;SDS011;5071;52.360;13.134;2022-09-01T12:42:05;0.52;;;0.30;;
10063;SDS011;5071;52.360;13.134;2022-09-01T12:52:47;1.58;;;0.50;;
10063;SDS011;5071;52.360;13.134;2022-09-01T12:57:53;0.93;;;0.40;;
10063;SDS011;5071;52.360;13.134;2022-09-01T13:03:06;0.65;;;0.30;;
10063;SDS011;5071;52.360;13.134;2022-09-01T13:08:13;0.40;;;0.40;;
10063;SDS011;5071;52.360;13.134;2022-09-01T13:13:19;1.15;;;0.40;;
10063;SDS011;5071;52.360;13.134;2022-09-01T13:18:24;0.40;;;0.40;;
10063;SDS011;5071;52.360;13.134;2022-09-01T13:23:26;0.32;;;0.30;;
10063;SDS011;5071;52.360;13.134;2022-09-01T13:28:28;0.30;;;0.30;;
10063;SDS011;5071;52.360;13.134;2022-09-01T13:33:33;0.32;;;0.30;;
10063;SDS011;5071;52.360;13.134;2022-09-01T13:38:56;0.65;;;0.47;;
10063;SDS011;5071;52.360;13.134;2022-09-01T13:43:59;0.40;;;0.40;;
10063;SDS011;5071;52.360;13.134;2022-09-01T13:49:02;1.40;;;0.50;;
10063;SDS011;5071;52.360;13.134;2022-09-01T13:54:24;0.50;;;0.50;;
10063;SDS011;5071;52.360;13.134;2022-09-01T13:59:25;2.40;;;0.40;;
10063;SDS011;5071;52.360;13.134;2022-09-01T14:04:29;0.57;;;0.30;;
10063;SDS011;5071;52.360;13.134;2022-09-01T14:09:31;0.80;;;0.30;;
10063;SDS011;5071;52.360;13.134;2022-09-01T14:14:33;0.47;;;0.35;;
10063;SDS011;5071;52.360;13.134;2022-09-01T14:19:57;1.00;;;0.38;;
10063;SDS011;5071;52.360;13.134;2022-09-01T14:24:58;0.55;;;0.50;;
10063;SDS011;5071;52.360;13.134;2022-09-01T14:30:00;3.17;;;0.40;;
10063;SDS011;5071;52.360;13.134;2022-09-01T14:35:12;0.93;;;0.45;;
10063;SDS011;5071;52.360;13.134;2022-09-01T14:40:33;0.73;;;0.40;;
10063;SDS011;5071;52.360;13.134;2022-09-01T14:46:00;0.50;;;0.50;;
10063;SDS011;5071;52.360;13.134;2022-09-01T14:51:16;1.70;;;0.70;;
10063;SDS011;5071;52.360;13.134;2022-09-01T14:56:50;0.50;;;0.40;;
10063;SDS011;5071;52.360;13.134;2022-09-01T15:02:12;0.73;;;0.52;;
10063;SDS011;5071;52.360;13.134;2022-09-01T15:07:23;1.35;;;0.50;;
10063;SDS011;5071;52.360;13.134;2022-09-01T15:12:34;0.70;;;0.50;;
10063;SDS011;5071;52.360;13.134;2022-09-01T15:17:36;0.80;;;0.40;;
10063;SDS011;5071;52.360;13.134;2022-09-01T15:22:46;0.70;;;0.50;;
10063;SDS011;5071;52.360;13.134;2022-09-01T15:28:02;0.65;;;0.40;;
10063;SDS011;5071;52.360;13.134;2022-09-01T15:33:11;0.55;;;0.40;;
10063;SDS011;5071;52.360;13.134;2022-09-01T15:38:19;0.65;;;0.55;;
10063;SDS011;5071;52.360;13.134;2022-09-01T15:43:31;0.70;;;0.30;;
10063;SDS011;5071;52.360;13.134;2022-09-01T15:48:33;0.50;;;0.50;;
10063;SDS011;5071;52.360;13.134;2022-09-01T15:53:40;0.77;;;0.52;;
10063;SDS011;5071;52.360;13.134;2022-09-01T15:58:56;0.65;;;0.43;;
10063;SDS011;5071;52.360;13.134;2022-09-01T16:04:07;0.50;;;0.45;;
10063;SDS011;5071;52.360;13.134;2022-09-01T16:09:20;0.43;;;0.40;;
10063;SDS011;5071;52.360;13.134;2022-09-01T16:14:32;0.98;;;0.47;;
10063;SDS011;5071;52.360;13.134;2022-09-01T16:19:46;0.60;;;0.40;;
10063;SDS011;5071;52.360;13.134;2022-09-01T16:24:59;0.50;;;0.40;;
10063;SDS011;5071;52.360;13.134;2022-09-01T16:30:09;0.45;;;0.43;;
10063;SDS011;5071;52.360;13.134;2022-09-01T16:35:17;1.88;;;0.50;;
10063;SDS011;5071;52.360;13.134;2022-09-01T16:40:33;1.75;;;0.52;;
10063;SDS011;5071;52.360;13.134;2022-09-01T16:45:51;0.65;;;0.50;;
10063;SDS011;5071;52.360;13.134;2022-09-01T16:51:15;2.03;;;0.60;;
10063;SDS011;5071;52.360;13.134;2022-09-01T16:56:31;2.65;;;0.70;;
10063;SDS011;5071;52.360;13.134;2022-09-01T17:01:42;0.50;;;0.50;;
10063;SDS011;5071;52.360;13.134;2022-09-01T17:07:02;1.90;;;0.60;;
10063;SDS011;5071;52.360;13.134;2022-09-01T17:12:26;0.97;;;0.63;;
10063;SDS011;5071;52.360;13.134;2022-09-01T17:17:47;0.57;;;0.40;;
10063;SDS011;5071;52.360;13.134;2022-09-01T17:23:06;0.77;;;0.50;;
10063;SDS011;5071;52.360;13.134;2022-09-01T17:28:29;2.37;;;0.67;;
10063;SDS011;5071;52.360;13.134;2022-09-01T17:33:51;0.70;;;0.60;;
10063;SDS011;5071;52.360;13.134;2022-09-01T17:39:06;0.70;;;0.40;;
10063;SDS011;5071;52.360;13.134;2022-09-01T17:44:35;1.80;;;0.53;;
10063;SDS011;5071;52.360;13.134;2022-09-01T17:49:51;0.87;;;0.50;;
10063;SDS011;5071;52.360;13.134;2022-09-01T17:55:14;4.93;;;2.07;;
10063;SDS011;5071;52.360;13.134;2022-09-01T18:00:33;0.80;;;0.60;;
10063;SDS011;5071;52.360;13.134;2022-09-01T18:05:52;1.40;;;0.70;;
10063;SDS011;5071;52.360;13.134;2022-09-01T18:11:05;1.00;;;0.77;;
10063;SDS011;5071;52.360;13.134;2022-09-01T18:16:15;2.13;;;0.80;;
10063;SDS011;5071;52.360;13.134;2022-09-01T18:21:22;0.80;;;0.57;;
10063;SDS011;5071;52.360;13.134;2022-09-01T18:26:33;1.07;;;0.77;;
10063;SDS011;5071;52.360;13.134;2022-09-01T18:31:48;0.93;;;0.83;;
10063;SDS011;5071;52.360;13.134;2022-09-01T18:37:02;1.63;;;0.60;;
10063;SDS011;5071;52.360;13.134;2022-09-01T18:42:15;0.90;;;0.53;;
10063;SDS011;5071;52.360;13.134;2022-09-01T18:47:44;1.47;;;0.90;;
10063;SDS011;5071;52.360;13.134;2022-09-01T18:53:08;2.07;;;0.67;;
10063;SDS011;5071;52.360;13.134;2022-09-01T18:58:36;0.70;;;0.70;;
10063;SDS011;5071;52.360;13.134;2022-09-01T19:03:54;0.93;;;0.77;;
10063;SDS011;5071;52.360;13.134;2022-09-01T19:09:06;1.40;;;0.97;;
10063;SDS011;5071;52.360;13.134;2022-09-01T19:14:15;1.53;;;0.90;;
10063;SDS011;5071;52.360;13.134;2022-09-01T19:19:32;0.70;;;0.70;;
10063;SDS011;5071;52.360;13.134;2022-09-01T19:24:42;3.60;;;0.77;;
10063;SDS011;5071;52.360;13.134;2022-09-01T19:29:48;1.67;;;1.23;;
10063;SDS011;5071;52.360;13.134;2022-09-01T19:34:54;0.50;;;0.50;;
10063;SDS011;5071;52.360;13.134;2022-09-01T19:39:58;1.40;;;0.70;;
10063;SDS011;5071;52.360;13.134;2022-09-01T19:45:03;1.63;;;0.90;;
10063;SDS011;5071;52.360;13.134;2022-09-01T19:50:12;0.90;;;0.80;;
10063;SDS011;5071;52.360;13.134;2022-09-01T19:55:19;0.87;;;0.70;;
10063;SDS011;5071;52.360;13.134;2022-09-01T20:00:35;1.50;;;1.03;;
10063;SDS011;5071;52.360;13.134;2022-09-01T20:05:44;2.57;;;0.93;;
10063;SDS011;5071;52.360;13.134;2022-09-01T20:10:55;1.57;;;1.00;;
10063;SDS011;5071;52.360;13.134;2022-09-01T20:16:01;2.07;;;1.40;;
10063;SDS011;5071;52.360;13.134;2022-09-01T20:21:10;1.50;;;0.90;;
10063;SDS011;5071;52.360;13.134;2022-09-01T20:26:22;0.80;;;0.77;;
10063;SDS011;5071;52.360;13.134;2022-09-01T20:31:26;1.20;;;0.80;;
10063;SDS011;5071;52.360;13.134;2022-09-01T20:36:34;1.43;;;0.90;;
10063;SDS011;5071;52.360;13.134;2022-09-01T20:41:41;1.00;;;0.90;;
10063;SDS011;5071;52.360;13.134;2022-09-01T20:46:45;1.40;;;1.00;;
10063;SDS011;5071;52.360;13.134;2022-09-01T20:51:52;1.00;;;0.80;;
10063;SDS011;5071;52.360;13.134;2022-09-01T20:57:00;1.90;;;1.30;;
10063;SDS011;5071;52.360;13.134;2022-09-01T21:02:17;2.20;;;1.00;;
10063;SDS011;5071;52.360;13.134;2022-09-01T21:07:32;1.30;;;0.90;;
10063;SDS011;5071;52.360;13.134;2022-09-01T21:12:37;1.37;;;0.93;;
10063;SDS011;5071;52.360;13.134;2022-09-01T21:17:43;1.60;;;0.93;;
10063;SDS011;5071;52.360;13.134;2022-09-01T21:22:54;1.50;;;1.07;;
10063;SDS011;5071;52.360;13.134;2022-09-01T21:27:56;1.57;;;1.10;;
10063;SDS011;5071;52.360;13.134;2022-09-01T21:33:00;1.53;;;1.00;;
10063;SDS011;5071;52.360;13.134;2022-09-01T21:38:04;3.27;;;1.03;;
10063;SDS011;5071;52.360;13.134;2022-09-01T21:43:07;1.63;;;0.90;;
10063;SDS011;5071;52.360;13.134;2022-09-01T21:48:15;1.50;;;1.27;;
10063;SDS011;5071;52.360;13.134;2022-09-01T21:53:20;1.33;;;1.03;;
10063;SDS011;5071;52.360;13.134;2022-09-01T21:58:22;2.97;;;0.97;;
10063;SDS011;5071;52.360;13.134;2022-09-01T22:03:26;1.60;;;1.23;;
10063;SDS011;5071;52.360;13.134;2022-09-01T22:08:32;1.37;;;1.00;;
10063;SDS011;5071;52.360;13.134;2022-09-01T22:13:35;4.07;;;0.90;;
10063;SDS011;5071;52.360;13.134;2022-09-01T22:18:40;1.07;;;1.00;;
10063;SDS011;5071;52.360;13.134;2022-09-01T22:23:46;0.87;;;0.87;;
10063;SDS011;5071;52.360;13.134;2022-09-01T22:28:49;1.53;;;1.30;;
10063;SDS011;5071;52.360;13.134;2022-09-01T22:33:51;2.77;;;1.20;;
10063;SDS011;5071;52.360;13.134;2022-09-01T22:38:57;1.73;;;1.13;;
10063;SDS011;5071;52.360;13.134;2022-09-01T22:44:00;1.77;;;1.30;;
10063;SDS011;5071;52.360;13.134;2022-09-01T22:49:04;1.27;;;1.17;;
10063;SDS011;5071;52.360;13.134;2022-09-01T22:54:08;1.70;;;1.27;;
10063;SDS011;5071;52.360;13.134;2022-09-01T22:59:12;1.80;;;1.10;;
10063;SDS011;5071;52.360;13.134;2022-09-01T23:04:15;2.87;;;1.53;;
10063;SDS011;5071;52.360;13.134;2022-09-01T23:09:19;1.93;;;1.27;;
10063;SDS011;5071;52.360;13.134;2022-09-01T23:14:22;1.30;;;1.20;;
10063;SDS011;5071;52.360;13.134;2022-09-01T23:19:24;1.70;;;1.23;;
10063;SDS011;5071;52.360;13.134;2022-09-01T23:24:27;2.90;;;1.33;;
10063;SDS011;5071;52.360;13.134;2022-09-01T23:29:29;1.40;;;1.00;;
10063;SDS011;5071;52.360;13.134;2022-09-01T23:34:32;1.40;;;1.23;;
10063;SDS011;5071;52.360;13.134;2022-09-01T23:39:35;2.23;;;1.30;;
10063;SDS011;5071;52.360;13.134;2022-09-01T23:44:38;2.43;;;1.40;;
10063;SDS011;5071;52.360;13.134;2022-09-01T23:49:40;1.83;;;1.13;;
10063;SDS011;5071;52.360;13.134;2022-09-01T23:54:44;1.80;;;1.23;;
10063;SDS011;5071;52.360;13.134;2022-09-01T23:59:46;1.70;;;1.20;;
